sensor_id;sensor_type;location;lat;lon;timestamp;pressure;altitude;pressure_sealevel;temperature;humidity
63954;BME280;50128;52.094;5.232;2022-08-21T00:01:28;101619.0;;;15.7;85.43
63954;BME280;50128;52.094;5.232;2022-08-21T00:03:07;101619.0;;;15.66;85.37
63954;BME280;50128;52.094;5.232;2022-08-21T00:06:23;101621.0;;;15.63;85.18
63954;BME280;50128;52.094;5.232;2022-08-21T00:08:01;101622.0;;;15.58;85.48
63954;BME280;50128;52.094;5.232;2022-08-21T00:09:39;101621.0;;;15.57;85.16
63954;BME280;50128;52.094;5.232;2022-08-21T00:11:16;101622.0;;;15.54;85.77
63954;BME280;50128;52.094;5.232;2022-08-21T00:14:32;101620.0;;;15.65;85.36
63954;BME280;50128;52.094;5.232;2022-08-21T00:16:09;101624.0;;;15.56;85.63
63954;BME280;50128;52.094;5.232;2022-08-21T00:17:46;101622.0;;;15.62;85.4
63954;BME280;50128;52.094;5.232;2022-08-21T00:21:03;101622.0;;;15.55;86.21
63954;BME280;50128;52.094;5.232;2022-08-21T00:22:40;101620.0;;;15.54;85.79
63954;BME280;50128;52.094;5.232;2022-08-21T00:24:17;101619.0;;;15.43;85.77
63954;BME280;50128;52.094;5.232;2022-08-21T00:25:54;101618.0;;;15.44;85.79
63954;BME280;50128;52.094;5.232;2022-08-21T00:29:07;101616.0;;;15.37;86.58
63954;BME280;50128;52.094;5.232;2022-08-21T00:30:43;101613.0;;;15.37;86.37
63954;BME280;50128;52.094;5.232;2022-08-21T00:32:21;101611.0;;;15.36;86.57
63954;BME280;50128;52.094;5.232;2022-08-21T00:35:39;101607.0;;;15.35;86.43
63954;BME280;50128;52.094;5.232;2022-08-21T00:37:17;101608.0;;;15.34;86.33
63954;BME280;50128;52.094;5.232;2022-08-21T00:38:54;101605.0;;;15.4;86.11
63954;BME280;50128;52.094;5.232;2022-08-21T00:40:36;101605.0;;;15.31;86.39
63954;BME280;50128;52.094;5.232;2022-08-21T00:43:53;101601.0;;;15.33;86.35
63954;BME280;50128;52.094;5.232;2022-08-21T00:47:09;101606.0;;;15.23;87.28
63954;BME280;50128;52.094;5.232;2022-08-21T00:48:46;101605.0;;;15.23;87.26
63954;BME280;50128;52.094;5.232;2022-08-21T00:52:07;101602.0;;;15.22;87.01
63954;BME280;50128;52.094;5.232;2022-08-21T00:53:46;101607.0;;;15.22;86.8
63954;BME280;50128;52.094;5.232;2022-08-21T00:55:23;101602.0;;;15.23;86.39
63954;BME280;50128;52.094;5.232;2022-08-21T00:58:47;101607.0;;;15.2;86.6
63954;BME280;50128;52.094;5.232;2022-08-21T01:00:28;101601.0;;;15.13;86.6
63954;BME280;50128;52.094;5.232;2022-08-21T01:02:07;101600.0;;;15.09;87.2
63954;BME280;50128;52.094;5.232;2022-08-21T01:03:45;101602.0;;;15.1;87.07
63954;BME280;50128;52.094;5.232;2022-08-21T01:07:00;101605.0;;;15.17;87.15
63954;BME280;50128;52.094;5.232;2022-08-21T01:08:37;101605.0;;;15.09;87.15
63954;BME280;50128;52.094;5.232;2022-08-21T01:10:15;101605.0;;;15.07;87.0
63954;BME280;50128;52.094;5.232;2022-08-21T01:11:52;101603.0;;;15.17;87.27
63954;BME280;50128;52.094;5.232;2022-08-21T01:15:13;101603.0;;;15.25;86.24
63954;BME280;50128;52.094;5.232;2022-08-21T01:16:52;101602.0;;;15.13;86.87
63954;BME280;50128;52.094;5.232;2022-08-21T01:18:30;101599.0;;;15.17;86.71
63954;BME280;50128;52.094;5.232;2022-08-21T01:20:10;101599.0;;;15.11;86.82
63954;BME280;50128;52.094;5.232;2022-08-21T01:23:24;101600.0;;;15.13;86.99
63954;BME280;50128;52.094;5.232;2022-08-21T01:25:03;101606.0;;;15.08;86.9
63954;BME280;50128;52.094;5.232;2022-08-21T01:26:42;101607.0;;;15.0;87.19
63954;BME280;50128;52.094;5.232;2022-08-21T01:30:03;101606.0;;;15.02;87.02
63954;BME280;50128;52.094;5.232;2022-08-21T01:31:44;101605.0;;;14.95;87.42
63954;BME280;50128;52.094;5.232;2022-08-21T01:33:24;101605.0;;;14.91;87.36
63954;BME280;50128;52.094;5.232;2022-08-21T01:35:01;101605.0;;;14.87;87.7
63954;BME280;50128;52.094;5.232;2022-08-21T01:38:16;101601.0;;;14.83;87.87
63954;BME280;50128;52.094;5.232;2022-08-21T01:39:53;101599.0;;;14.83;87.99
63954;BME280;50128;52.094;5.232;2022-08-21T01:41:29;101597.0;;;14.8;88.21
63954;BME280;50128;52.094;5.232;2022-08-21T01:44:43;101599.0;;;14.82;88.27
63954;BME280;50128;52.094;5.232;2022-08-21T01:46:20;101601.0;;;14.89;88.07
63954;BME280;50128;52.094;5.232;2022-08-21T01:47:56;101596.0;;;14.87;87.74
63954;BME280;50128;52.094;5.232;2022-08-21T01:49:33;101596.0;;;14.88;87.9
63954;BME280;50128;52.094;5.232;2022-08-21T01:52:48;101595.0;;;14.89;87.69
63954;BME280;50128;52.094;5.232;2022-08-21T01:54:25;101596.0;;;14.96;87.16
63954;BME280;50128;52.094;5.232;2022-08-21T01:56:04;101591.0;;;14.93;87.26
63954;BME280;50128;52.094;5.232;2022-08-21T01:59:20;101589.0;;;14.86;87.3
63954;BME280;50128;52.094;5.232;2022-08-21T02:00:58;101586.0;;;14.82;88.1
63954;BME280;50128;52.094;5.232;2022-08-21T02:02:34;101582.0;;;14.8;87.62
63954;BME280;50128;52.094;5.232;2022-08-21T02:04:11;101585.0;;;14.83;87.86
63954;BME280;50128;52.094;5.232;2022-08-21T02:07:24;101584.0;;;14.86;87.9
63954;BME280;50128;52.094;5.232;2022-08-21T02:09:02;101582.0;;;14.8;88.8
63954;BME280;50128;52.094;5.232;2022-08-21T02:10:41;101583.0;;;14.77;88.73
63954;BME280;50128;52.094;5.232;2022-08-21T02:13:53;101588.0;;;14.93;88.73
63954;BME280;50128;52.094;5.232;2022-08-21T02:15:30;101585.0;;;14.94;87.69
63954;BME280;50128;52.094;5.232;2022-08-21T02:17:07;101591.0;;;14.88;88.38
63954;BME280;50128;52.094;5.232;2022-08-21T02:18:43;101590.0;;;14.94;88.04
63954;BME280;50128;52.094;5.232;2022-08-21T02:22:03;101583.0;;;14.88;87.88
63954;BME280;50128;52.094;5.232;2022-08-21T02:23:40;101583.0;;;14.8;88.2
63954;BME280;50128;52.094;5.232;2022-08-21T02:25:16;101577.0;;;14.72;88.78
63954;BME280;50128;52.094;5.232;2022-08-21T02:28:31;101574.0;;;14.72;89.1
63954;BME280;50128;52.094;5.232;2022-08-21T02:30:08;101574.0;;;14.73;88.68
63954;BME280;50128;52.094;5.232;2022-08-21T02:31:47;101571.0;;;14.71;88.59
63954;BME280;50128;52.094;5.232;2022-08-21T02:33:24;101573.0;;;14.71;88.72
63954;BME280;50128;52.094;5.232;2022-08-21T02:36:39;101570.0;;;14.71;88.33
63954;BME280;50128;52.094;5.232;2022-08-21T02:38:19;101570.0;;;14.67;88.69
63954;BME280;50128;52.094;5.232;2022-08-21T02:39:59;101568.0;;;14.66;88.96
63954;BME280;50128;52.094;5.232;2022-08-21T02:43:13;101564.0;;;14.66;88.78
63954;BME280;50128;52.094;5.232;2022-08-21T02:44:50;101562.0;;;14.65;89.14
63954;BME280;50128;52.094;5.232;2022-08-21T02:46:27;101559.0;;;14.71;88.69
63954;BME280;50128;52.094;5.232;2022-08-21T02:48:06;101562.0;;;14.63;88.7
63954;BME280;50128;52.094;5.232;2022-08-21T02:51:20;101563.0;;;14.61;88.82
63954;BME280;50128;52.094;5.232;2022-08-21T02:52:59;101559.0;;;14.58;89.47
63954;BME280;50128;52.094;5.232;2022-08-21T02:54:36;101565.0;;;14.56;89.5
63954;BME280;50128;52.094;5.232;2022-08-21T02:57:56;101564.0;;;14.66;88.86
63954;BME280;50128;52.094;5.232;2022-08-21T02:59:34;101560.0;;;14.59;89.08
63954;BME280;50128;52.094;5.232;2022-08-21T03:01:11;101556.0;;;14.59;89.38
63954;BME280;50128;52.094;5.232;2022-08-21T03:02:49;101556.0;;;14.61;89.18
63954;BME280;50128;52.094;5.232;2022-08-21T03:06:03;101555.0;;;14.55;89.41
63954;BME280;50128;52.094;5.232;2022-08-21T03:07:41;101552.0;;;14.54;89.83
63954;BME280;50128;52.094;5.232;2022-08-21T03:09:19;101552.0;;;14.54;89.74
63954;BME280;50128;52.094;5.232;2022-08-21T03:12:32;101548.0;;;14.52;89.45
63954;BME280;50128;52.094;5.232;2022-08-21T03:14:09;101546.0;;;14.54;89.42
63954;BME280;50128;52.094;5.232;2022-08-21T03:15:46;101542.0;;;14.47;89.35
63954;BME280;50128;52.094;5.232;2022-08-21T03:17:23;101541.0;;;14.42;89.32
63954;BME280;50128;52.094;5.232;2022-08-21T03:20:39;101540.0;;;14.44;89.45
63954;BME280;50128;52.094;5.232;2022-08-21T03:22:17;101541.0;;;14.38;89.64
63954;BME280;50128;52.094;5.232;2022-08-21T03:23:54;101540.0;;;14.39;89.85
63954;BME280;50128;52.094;5.232;2022-08-21T03:27:12;101540.0;;;14.42;89.75
63954;BME280;50128;52.094;5.232;2022-08-21T03:28:50;101541.0;;;14.47;89.14
63954;BME280;50128;52.094;5.232;2022-08-21T03:30:27;101539.0;;;14.43;89.76
63954;BME280;50128;52.094;5.232;2022-08-21T03:32:05;101542.0;;;14.44;89.72
63954;BME280;50128;52.094;5.232;2022-08-21T03:35:18;101540.0;;;14.36;89.99
63954;BME280;50128;52.094;5.232;2022-08-21T03:36:56;101541.0;;;14.43;89.71
63954;BME280;50128;52.094;5.232;2022-08-21T03:38:34;101538.0;;;14.35;89.72
63954;BME280;50128;52.094;5.232;2022-08-21T03:41:52;101540.0;;;14.53;89.07
63954;BME280;50128;52.094;5.232;2022-08-21T03:43:30;101544.0;;;14.4;89.29
63954;BME280;50128;52.094;5.232;2022-08-21T03:45:08;101540.0;;;14.42;89.11
63954;BME280;50128;52.094;5.232;2022-08-21T03:46:45;101535.0;;;14.38;89.06
63954;BME280;50128;52.094;5.232;2022-08-21T03:49:59;101541.0;;;14.37;88.93
63954;BME280;50128;52.094;5.232;2022-08-21T03:51:36;101537.0;;;14.27;89.28
63954;BME280;50128;52.094;5.232;2022-08-21T03:53:14;101536.0;;;14.21;89.68
63954;BME280;50128;52.094;5.232;2022-08-21T03:56:29;101534.0;;;14.16;89.7
63954;BME280;50128;52.094;5.232;2022-08-21T03:58:05;101531.0;;;14.12;89.5
63954;BME280;50128;52.094;5.232;2022-08-21T03:59:43;101534.0;;;14.04;89.76
63954;BME280;50128;52.094;5.232;2022-08-21T04:01:20;101536.0;;;14.05;89.05
63954;BME280;50128;52.094;5.232;2022-08-21T04:04:33;101534.0;;;14.01;89.1
63954;BME280;50128;52.094;5.232;2022-08-21T04:06:10;101532.0;;;13.96;89.4
63954;BME280;50128;52.094;5.232;2022-08-21T04:07:46;101530.0;;;13.94;89.71
63954;BME280;50128;52.094;5.232;2022-08-21T04:11:02;101532.0;;;13.92;89.78
63954;BME280;50128;52.094;5.232;2022-08-21T04:12:39;101534.0;;;13.9;89.72
63954;BME280;50128;52.094;5.232;2022-08-21T04:14:15;101534.0;;;13.83;89.95
63954;BME280;50128;52.094;5.232;2022-08-21T04:15:53;101537.0;;;13.85;89.92
63954;BME280;50128;52.094;5.232;2022-08-21T04:19:07;101532.0;;;13.86;90.3
63954;BME280;50128;52.094;5.232;2022-08-21T04:20:45;101536.0;;;13.79;90.11
63954;BME280;50128;52.094;5.232;2022-08-21T04:22:24;101542.0;;;13.73;90.39
63954;BME280;50128;52.094;5.232;2022-08-21T04:25:36;101541.0;;;13.7;90.09
63954;BME280;50128;52.094;5.232;2022-08-21T04:27:13;101535.0;;;13.78;90.12
63954;BME280;50128;52.094;5.232;2022-08-21T04:28:49;101543.0;;;13.7;90.0
63954;BME280;50128;52.094;5.232;2022-08-21T04:32:03;101543.0;;;13.69;90.66
63954;BME280;50128;52.094;5.232;2022-08-21T04:33:40;101539.0;;;13.66;90.66
63954;BME280;50128;52.094;5.232;2022-08-21T04:35:19;101542.0;;;13.72;90.09
63954;BME280;50128;52.094;5.232;2022-08-21T04:36:56;101545.0;;;13.73;90.36
63954;BME280;50128;52.094;5.232;2022-08-21T04:40:12;101547.0;;;13.8;90.19
63954;BME280;50128;52.094;5.232;2022-08-21T04:41:49;101544.0;;;13.71;90.78
63954;BME280;50128;52.094;5.232;2022-08-21T04:43:25;101543.0;;;13.79;90.79
63954;BME280;50128;52.094;5.232;2022-08-21T04:46:38;101550.0;;;13.73;90.3
63954;BME280;50128;52.094;5.232;2022-08-21T04:48:16;101548.0;;;13.72;90.44
63954;BME280;50128;52.094;5.232;2022-08-21T04:49:55;101547.0;;;13.72;90.46
63954;BME280;50128;52.094;5.232;2022-08-21T04:51:34;101552.0;;;13.72;91.01
63954;BME280;50128;52.094;5.232;2022-08-21T04:54:54;101550.0;;;13.74;91.29
63954;BME280;50128;52.094;5.232;2022-08-21T04:56:34;101549.0;;;13.81;91.5
63954;BME280;50128;52.094;5.232;2022-08-21T04:58:19;101555.0;;;13.82;91.82
63954;BME280;50128;52.094;5.232;2022-08-21T04:59:56;101558.0;;;13.85;91.7
63954;BME280;50128;52.094;5.232;2022-08-21T05:03:14;101556.0;;;13.86;92.0
63954;BME280;50128;52.094;5.232;2022-08-21T05:04:54;101561.0;;;13.91;92.23
63954;BME280;50128;52.094;5.232;2022-08-21T05:06:34;101561.0;;;14.09;91.86
63954;BME280;50128;52.094;5.232;2022-08-21T05:08:15;101565.0;;;14.13;91.87
63954;BME280;50128;52.094;5.232;2022-08-21T05:11:32;101564.0;;;14.09;91.96
63954;BME280;50128;52.094;5.232;2022-08-21T05:13:11;101568.0;;;14.09;92.57
63954;BME280;50128;52.094;5.232;2022-08-21T05:14:48;101568.0;;;14.1;92.29
63954;BME280;50128;52.094;5.232;2022-08-21T05:18:03;101567.0;;;14.14;92.58
63954;BME280;50128;52.094;5.232;2022-08-21T05:19:40;101568.0;;;14.3;92.84
63954;BME280;50128;52.094;5.232;2022-08-21T05:21:16;101570.0;;;14.29;92.82
63954;BME280;50128;52.094;5.232;2022-08-21T05:22:53;101571.0;;;14.4;92.94
63954;BME280;50128;52.094;5.232;2022-08-21T05:26:07;101566.0;;;14.44;92.61
63954;BME280;50128;52.094;5.232;2022-08-21T05:27:43;101571.0;;;14.48;92.47
63954;BME280;50128;52.094;5.232;2022-08-21T05:29:20;101569.0;;;14.64;92.31
63954;BME280;50128;52.094;5.232;2022-08-21T05:32:34;101572.0;;;14.73;92.32
63954;BME280;50128;52.094;5.232;2022-08-21T05:34:12;101573.0;;;14.83;92.08
63954;BME280;50128;52.094;5.232;2022-08-21T05:35:50;101570.0;;;14.96;91.63
63954;BME280;50128;52.094;5.232;2022-08-21T05:37:27;101574.0;;;14.91;91.83
63954;BME280;50128;52.094;5.232;2022-08-21T05:40:40;101578.0;;;15.12;91.16
63954;BME280;50128;52.094;5.232;2022-08-21T05:42:17;101575.0;;;15.28;90.65
63954;BME280;50128;52.094;5.232;2022-08-21T05:43:53;101578.0;;;15.24;91.04
63954;BME280;50128;52.094;5.232;2022-08-21T05:47:10;101580.0;;;15.25;90.58
63954;BME280;50128;52.094;5.232;2022-08-21T05:48:46;101581.0;;;15.35;90.22
63954;BME280;50128;52.094;5.232;2022-08-21T05:50:23;101576.0;;;15.36;89.69
63954;BME280;50128;52.094;5.232;2022-08-21T05:53:38;101574.0;;;15.41;90.36
63954;BME280;50128;52.094;5.232;2022-08-21T05:55:15;101572.0;;;15.62;89.65
63954;BME280;50128;52.094;5.232;2022-08-21T05:56:51;101570.0;;;15.64;89.2
63954;BME280;50128;52.094;5.232;2022-08-21T05:58:27;101568.0;;;15.65;89.22
63954;BME280;50128;52.094;5.232;2022-08-21T06:01:41;101568.0;;;15.66;89.64
63954;BME280;50128;52.094;5.232;2022-08-21T06:03:23;101569.0;;;15.73;89.4
63954;BME280;50128;52.094;5.232;2022-08-21T06:05:00;101569.0;;;15.8;89.06
63954;BME280;50128;52.094;5.232;2022-08-21T06:08:13;101571.0;;;15.78;89.59
63954;BME280;50128;52.094;5.232;2022-08-21T06:09:50;101570.0;;;15.89;89.16
63954;BME280;50128;52.094;5.232;2022-08-21T06:11:27;101564.0;;;15.94;88.6
63954;BME280;50128;52.094;5.232;2022-08-21T06:13:04;101563.0;;;15.98;89.14
63954;BME280;50128;52.094;5.232;2022-08-21T06:16:18;101559.0;;;16.04;88.79
63954;BME280;50128;52.094;5.232;2022-08-21T06:17:54;101561.0;;;16.18;88.59
63954;BME280;50128;52.094;5.232;2022-08-21T06:19:32;101560.0;;;16.28;87.78
63954;BME280;50128;52.094;5.232;2022-08-21T06:22:46;101566.0;;;16.34;87.67
63954;BME280;50128;52.094;5.232;2022-08-21T06:24:22;101566.0;;;16.43;87.74
63954;BME280;50128;52.094;5.232;2022-08-21T06:25:59;101565.0;;;16.61;86.98
63954;BME280;50128;52.094;5.232;2022-08-21T06:29:17;101566.0;;;16.7;86.81
63954;BME280;50128;52.094;5.232;2022-08-21T06:30:53;101570.0;;;16.77;87.3
63954;BME280;50128;52.094;5.232;2022-08-21T06:32:31;101570.0;;;17.0;86.27
63954;BME280;50128;52.094;5.232;2022-08-21T06:34:07;101576.0;;;17.22;85.28
63954;BME280;50128;52.094;5.232;2022-08-21T06:37:21;101571.0;;;17.52;83.76
63954;BME280;50128;52.094;5.232;2022-08-21T06:38:58;101572.0;;;17.61;83.7
63954;BME280;50128;52.094;5.232;2022-08-21T06:40:34;101573.0;;;17.82;82.81
63954;BME280;50128;52.094;5.232;2022-08-21T06:43:50;101570.0;;;17.91;82.42
63954;BME280;50128;52.094;5.232;2022-08-21T06:45:27;101567.0;;;18.12;82.29
63954;BME280;50128;52.094;5.232;2022-08-21T06:47:04;101567.0;;;18.18;81.44
63954;BME280;50128;52.094;5.232;2022-08-21T06:48:41;101566.0;;;18.2;81.28
63954;BME280;50128;52.094;5.232;2022-08-21T06:51:54;101560.0;;;18.34;80.87
63954;BME280;50128;52.094;5.232;2022-08-21T06:53:32;101562.0;;;18.43;80.66
63954;BME280;50128;52.094;5.232;2022-08-21T06:55:10;101562.0;;;18.61;80.16
63954;BME280;50128;52.094;5.232;2022-08-21T06:58:26;101565.0;;;18.63;80.52
63954;BME280;50128;52.094;5.232;2022-08-21T07:00:06;101564.0;;;18.8;80.31
63954;BME280;50128;52.094;5.232;2022-08-21T07:01:43;101563.0;;;18.71;79.94
63954;BME280;50128;52.094;5.232;2022-08-21T07:03:23;101565.0;;;18.73;80.72
63954;BME280;50128;52.094;5.232;2022-08-21T07:06:38;101564.0;;;18.96;79.94
63954;BME280;50128;52.094;5.232;2022-08-21T07:08:15;101564.0;;;18.97;80.11
63954;BME280;50128;52.094;5.232;2022-08-21T07:09:52;101565.0;;;19.03;79.36
63954;BME280;50128;52.094;5.232;2022-08-21T07:14:42;101557.0;;;19.04;78.52
63954;BME280;50128;52.094;5.232;2022-08-21T07:16:19;101559.0;;;19.0;78.66
63954;BME280;50128;52.094;5.232;2022-08-21T07:17:57;101556.0;;;19.11;79.05
63954;BME280;50128;52.094;5.232;2022-08-21T07:21:10;101557.0;;;19.09;78.95
63954;BME280;50128;52.094;5.232;2022-08-21T07:22:47;101558.0;;;19.12;78.47
63954;BME280;50128;52.094;5.232;2022-08-21T07:24:23;101561.0;;;19.2;79.16
63954;BME280;50128;52.094;5.232;2022-08-21T07:27:37;101561.0;;;19.34;79.49
63954;BME280;50128;52.094;5.232;2022-08-21T07:29:13;101561.0;;;19.32;78.58
63954;BME280;50128;52.094;5.232;2022-08-21T07:30:50;101561.0;;;19.45;78.62
63954;BME280;50128;52.094;5.232;2022-08-21T07:32:29;101558.0;;;19.53;78.33
63954;BME280;50128;52.094;5.232;2022-08-21T07:35:44;101562.0;;;19.66;79.41
63954;BME280;50128;52.094;5.232;2022-08-21T07:37:21;101564.0;;;19.68;78.19
63954;BME280;50128;52.094;5.232;2022-08-21T07:38:58;101560.0;;;19.77;79.39
63954;BME280;50128;52.094;5.232;2022-08-21T07:42:11;101569.0;;;19.81;78.49
63954;BME280;50128;52.094;5.232;2022-08-21T07:43:47;101570.0;;;19.84;77.14
63954;BME280;50128;52.094;5.232;2022-08-21T07:45:25;101565.0;;;19.93;76.78
63954;BME280;50128;52.094;5.232;2022-08-21T07:48:40;101567.0;;;19.93;76.97
63954;BME280;50128;52.094;5.232;2022-08-21T07:50:17;101571.0;;;19.96;77.28
63954;BME280;50128;52.094;5.232;2022-08-21T07:51:55;101568.0;;;19.95;76.99
63954;BME280;50128;52.094;5.232;2022-08-21T07:53:31;101573.0;;;19.98;77.72
63954;BME280;50128;52.094;5.232;2022-08-21T07:56:47;101573.0;;;20.16;77.34
63954;BME280;50128;52.094;5.232;2022-08-21T07:58:23;101567.0;;;20.2;76.84
63954;BME280;50128;52.094;5.232;2022-08-21T08:00:00;101570.0;;;20.32;76.17
63954;BME280;50128;52.094;5.232;2022-08-21T08:03:12;101570.0;;;20.36;77.0
63954;BME280;50128;52.094;5.232;2022-08-21T08:04:50;101568.0;;;20.3;76.05
63954;BME280;50128;52.094;5.232;2022-08-21T08:06:27;101565.0;;;20.37;76.19
63954;BME280;50128;52.094;5.232;2022-08-21T08:08:04;101559.0;;;20.41;76.67
63954;BME280;50128;52.094;5.232;2022-08-21T08:11:17;101562.0;;;20.54;76.84
63954;BME280;50128;52.094;5.232;2022-08-21T08:12:55;101556.0;;;20.63;75.75
63954;BME280;50128;52.094;5.232;2022-08-21T08:14:32;101555.0;;;20.73;74.74
63954;BME280;50128;52.094;5.232;2022-08-21T08:17:46;101561.0;;;20.88;74.8
63954;BME280;50128;52.094;5.232;2022-08-21T08:19:24;101559.0;;;20.83;74.19
63954;BME280;50128;52.094;5.232;2022-08-21T08:21:01;101561.0;;;20.97;73.72
63954;BME280;50128;52.094;5.232;2022-08-21T08:24:16;101563.0;;;20.88;74.05
63954;BME280;50128;52.094;5.232;2022-08-21T08:25:52;101565.0;;;20.88;74.86
63954;BME280;50128;52.094;5.232;2022-08-21T08:27:30;101565.0;;;20.97;74.45
63954;BME280;50128;52.094;5.232;2022-08-21T08:29:08;101561.0;;;21.08;73.47
63954;BME280;50128;52.094;5.232;2022-08-21T08:32:22;101559.0;;;21.16;73.77
63954;BME280;50128;52.094;5.232;2022-08-21T08:33:59;101561.0;;;21.23;73.48
63954;BME280;50128;52.094;5.232;2022-08-21T08:35:36;101564.0;;;21.28;73.36
63954;BME280;50128;52.094;5.232;2022-08-21T08:38:49;101557.0;;;21.33;72.91
63954;BME280;50128;52.094;5.232;2022-08-21T08:40:31;101560.0;;;21.32;72.49
63954;BME280;50128;52.094;5.232;2022-08-21T08:42:24;101560.0;;;21.36;73.33
63954;BME280;50128;52.094;5.232;2022-08-21T08:44:06;101560.0;;;21.5;72.47
63954;BME280;50128;52.094;5.232;2022-08-21T08:45:48;101563.0;;;21.51;72.83
63954;BME280;50128;52.094;5.232;2022-08-21T08:49:09;101562.0;;;21.75;71.47
63954;BME280;50128;52.094;5.232;2022-08-21T08:50:52;101555.0;;;21.62;72.17
63954;BME280;50128;52.094;5.232;2022-08-21T08:52:34;101557.0;;;21.72;72.11
63954;BME280;50128;52.094;5.232;2022-08-21T08:54:16;101557.0;;;21.81;70.28
63954;BME280;50128;52.094;5.232;2022-08-21T08:57:38;101552.0;;;21.85;70.86
63954;BME280;50128;52.094;5.232;2022-08-21T08:59:19;101549.0;;;22.09;70.14
63954;BME280;50128;52.094;5.232;2022-08-21T09:01:08;101546.0;;;22.15;69.8
63954;BME280;50128;52.094;5.232;2022-08-21T09:02:53;101541.0;;;22.23;69.98
63954;BME280;50128;52.094;5.232;2022-08-21T09:06:21;101539.0;;;22.47;68.48
63954;BME280;50128;52.094;5.232;2022-08-21T09:08:19;101538.0;;;22.47;68.72
63954;BME280;50128;52.094;5.232;2022-08-21T09:10:13;101545.0;;;22.45;67.27
63954;BME280;50128;52.094;5.232;2022-08-21T09:11:59;101542.0;;;22.34;67.92
63954;BME280;50128;52.094;5.232;2022-08-21T09:13:49;101543.0;;;22.09;68.5
63954;BME280;50128;52.094;5.232;2022-08-21T09:15:32;101543.0;;;22.23;68.23
63954;BME280;50128;52.094;5.232;2022-08-21T09:17:22;101546.0;;;22.02;68.87
63954;BME280;50128;52.094;5.232;2022-08-21T09:19:26;101546.0;;;21.96;68.92
63954;BME280;50128;52.094;5.232;2022-08-21T09:23:11;101548.0;;;22.12;69.78
63954;BME280;50128;52.094;5.232;2022-08-21T09:25:03;101544.0;;;22.26;68.83
63954;BME280;50128;52.094;5.232;2022-08-21T09:26:47;101542.0;;;22.2;68.19
63954;BME280;50128;52.094;5.232;2022-08-21T09:28:34;101543.0;;;22.27;68.5
63954;BME280;50128;52.094;5.232;2022-08-21T09:30:12;101542.0;;;22.31;68.66
63954;BME280;50128;52.094;5.232;2022-08-21T09:31:49;101538.0;;;22.31;68.48
63954;BME280;50128;52.094;5.232;2022-08-21T09:35:08;101540.0;;;22.24;69.2
63954;BME280;50128;52.094;5.232;2022-08-21T09:36:47;101538.0;;;22.24;68.81
63954;BME280;50128;52.094;5.232;2022-08-21T09:38:30;101540.0;;;22.33;67.59
63954;BME280;50128;52.094;5.232;2022-08-21T09:40:19;101543.0;;;22.49;66.92
63954;BME280;50128;52.094;5.232;2022-08-21T09:43:52;101548.0;;;22.52;66.97
63954;BME280;50128;52.094;5.232;2022-08-21T09:45:30;101546.0;;;22.61;66.87
63954;BME280;50128;52.094;5.232;2022-08-21T09:47:08;101548.0;;;22.7;66.77
63954;BME280;50128;52.094;5.232;2022-08-21T09:48:48;101545.0;;;22.79;66.47
63954;BME280;50128;52.094;5.232;2022-08-21T09:52:16;101543.0;;;22.96;67.23
63954;BME280;50128;52.094;5.232;2022-08-21T09:53:58;101544.0;;;23.01;65.22
63954;BME280;50128;52.094;5.232;2022-08-21T09:58:45;101543.0;;;23.21;63.41
63954;BME280;50128;52.094;5.232;2022-08-21T10:00:28;101545.0;;;23.14;62.67
63954;BME280;50128;52.094;5.232;2022-08-21T10:02:22;101544.0;;;23.17;63.86
63954;BME280;50128;52.094;5.232;2022-08-21T10:04:04;101541.0;;;23.26;63.7
63954;BME280;50128;52.094;5.232;2022-08-21T10:05:53;101535.0;;;23.35;63.09
63954;BME280;50128;52.094;5.232;2022-08-21T10:07:32;101534.0;;;23.14;61.76
63954;BME280;50128;52.094;5.232;2022-08-21T10:10:56;101528.0;;;23.32;62.42
63954;BME280;50128;52.094;5.232;2022-08-21T10:12:46;101527.0;;;23.38;62.54
63954;BME280;50128;52.094;5.232;2022-08-21T10:14:50;101531.0;;;23.23;63.39
63954;BME280;50128;52.094;5.232;2022-08-21T10:16:42;101535.0;;;23.12;62.75
63954;BME280;50128;52.094;5.232;2022-08-21T10:18:34;101531.0;;;23.0;61.4
63954;BME280;50128;52.094;5.232;2022-08-21T10:20:20;101537.0;;;23.18;62.67
63954;BME280;50128;52.094;5.232;2022-08-21T10:22:05;101528.0;;;23.36;62.05
63954;BME280;50128;52.094;5.232;2022-08-21T10:25:40;101530.0;;;23.44;60.44
63954;BME280;50128;52.094;5.232;2022-08-21T10:27:32;101526.0;;;23.25;61.13
63954;BME280;50128;52.094;5.232;2022-08-21T10:29:23;101523.0;;;23.26;61.48
63954;BME280;50128;52.094;5.232;2022-08-21T10:31:21;101524.0;;;23.35;61.2
63954;BME280;50128;52.094;5.232;2022-08-21T10:33:17;101522.0;;;23.55;60.71
63954;BME280;50128;52.094;5.232;2022-08-21T10:35:04;101522.0;;;23.66;60.15
63954;BME280;50128;52.094;5.232;2022-08-21T10:36:52;101522.0;;;23.59;58.14
63954;BME280;50128;52.094;5.232;2022-08-21T10:38:55;101518.0;;;23.68;57.61
63954;BME280;50128;52.094;5.232;2022-08-21T10:42:27;101515.0;;;23.89;58.22
63954;BME280;50128;52.094;5.232;2022-08-21T10:44:20;101510.0;;;23.98;57.19
63954;BME280;50128;52.094;5.232;2022-08-21T10:46:08;101509.0;;;24.06;56.48
63954;BME280;50128;52.094;5.232;2022-08-21T10:47:54;101512.0;;;24.28;56.18
63954;BME280;50128;52.094;5.232;2022-08-21T10:49:40;101510.0;;;24.21;55.73
63954;BME280;50128;52.094;5.232;2022-08-21T10:51:28;101510.0;;;24.12;56.78
63954;BME280;50128;52.094;5.232;2022-08-21T10:55:08;101506.0;;;24.11;57.1
63954;BME280;50128;52.094;5.232;2022-08-21T10:56:51;101506.0;;;24.27;57.42
63954;BME280;50128;52.094;5.232;2022-08-21T10:58:36;101507.0;;;24.28;56.54
63954;BME280;50128;52.094;5.232;2022-08-21T11:00:18;101498.0;;;24.27;56.86
63954;BME280;50128;52.094;5.232;2022-08-21T11:02:02;101503.0;;;24.23;56.64
63954;BME280;50128;52.094;5.232;2022-08-21T11:05:30;101501.0;;;24.11;55.52
63954;BME280;50128;52.094;5.232;2022-08-21T11:07:15;101502.0;;;24.07;55.85
63954;BME280;50128;52.094;5.232;2022-08-21T11:09:04;101505.0;;;24.35;54.44
63954;BME280;50128;52.094;5.232;2022-08-21T11:10:49;101499.0;;;24.48;53.32
63954;BME280;50128;52.094;5.232;2022-08-21T11:12:34;101495.0;;;24.6;54.29